sensor_id;sensor_type;location;lat;lon;timestamp;P1;durP1;ratioP1;P2;durP2;ratioP2
44536;SDS011;30245;51.966;6.292;2023-07-13T00:00:11;3.03;;;0.30;;
44536;SDS011;30245;51.966;6.292;2023-07-13T00:02:40;5.82;;;0.47;;
44536;SDS011;30245;51.966;6.292;2023-07-13T00:05:06;3.50;;;0.30;;
44536;SDS011;30245;51.966;6.292;2023-07-13T00:07:32;8.00;;;0.68;;
44536;SDS011;30245;51.966;6.292;2023-07-13T00:09:58;2.40;;;0.20;;
44536;SDS011;30245;51.966;6.292;2023-07-13T00:12:25;5.35;;;0.50;;
44536;SDS011;30245;51.966;6.292;2023-07-13T00:14:54;7.13;;;0.50;;
44536;SDS011;30245;51.966;6.292;2023-07-13T00:17:22;1.73;;;0.47;;
44536;SDS011;30245;51.966;6.292;2023-07-13T00:19:48;2.83;;;0.57;;
44536;SDS011;30245;51.966;6.292;2023-07-13T00:22:14;3.67;;;0.43;;
44536;SDS011;30245;51.966;6.292;2023-07-13T00:24:40;2.03;;;0.50;;
44536;SDS011;30245;51.966;6.292;2023-07-13T00:27:07;5.95;;;0.40;;
44536;SDS011;30245;51.966;6.292;2023-07-13T00:29:34;2.17;;;0.20;;
44536;SDS011;30245;51.966;6.292;2023-07-13T00:32:01;3.88;;;0.50;;
44536;SDS011;30245;51.966;6.292;2023-07-13T00:34:28;5.30;;;0.22;;
44536;SDS011;30245;51.966;6.292;2023-07-13T00:36:54;1.27;;;0.32;;
44536;SDS011;30245;51.966;6.292;2023-07-13T00:39:19;2.10;;;0.40;;
44536;SDS011;30245;51.966;6.292;2023-07-13T00:41:46;1.75;;;0.20;;
44536;SDS011;30245;51.966;6.292;2023-07-13T00:44:15;2.33;;;0.30;;
44536;SDS011;30245;51.966;6.292;2023-07-13T00:46:43;1.40;;;0.55;;
44536;SDS011;30245;51.966;6.292;2023-07-13T00:49:10;1.42;;;0.30;;
44536;SDS011;30245;51.966;6.292;2023-07-13T00:51:39;0.93;;;0.20;;
44536;SDS011;30245;51.966;6.292;2023-07-13T00:54:11;2.67;;;0.30;;
44536;SDS011;30245;51.966;6.292;2023-07-13T00:56:48;1.90;;;0.40;;
44536;SDS011;30245;51.966;6.292;2023-07-13T00:59:17;1.50;;;0.47;;
44536;SDS011;30245;51.966;6.292;2023-07-13T01:01:44;2.83;;;0.45;;
44536;SDS011;30245;51.966;6.292;2023-07-13T01:04:10;5.22;;;0.52;;
44536;SDS011;30245;51.966;6.292;2023-07-13T01:06:36;1.92;;;0.20;;
44536;SDS011;30245;51.966;6.292;2023-07-13T01:09:03;1.48;;;0.68;;
44536;SDS011;30245;51.966;6.292;2023-07-13T01:11:31;1.05;;;0.40;;
44536;SDS011;30245;51.966;6.292;2023-07-13T01:13:56;2.90;;;0.20;;
44536;SDS011;30245;51.966;6.292;2023-07-13T01:16:26;5.25;;;0.55;;
44536;SDS011;30245;51.966;6.292;2023-07-13T01:18:54;1.38;;;0.38;;
44536;SDS011;30245;51.966;6.292;2023-07-13T01:21:23;1.10;;;0.10;;
44536;SDS011;30245;51.966;6.292;2023-07-13T01:23:49;3.65;;;0.20;;
44536;SDS011;30245;51.966;6.292;2023-07-13T01:26:15;2.17;;;0.40;;
44536;SDS011;30245;51.966;6.292;2023-07-13T01:28:41;1.85;;;0.95;;
44536;SDS011;30245;51.966;6.292;2023-07-13T01:31:08;7.55;;;1.65;;
44536;SDS011;30245;51.966;6.292;2023-07-13T01:33:36;2.33;;;0.60;;
44536;SDS011;30245;51.966;6.292;2023-07-13T01:38:28;1.15;;;0.20;;
44536;SDS011;30245;51.966;6.292;2023-07-13T01:40:54;2.13;;;0.20;;
44536;SDS011;30245;51.966;6.292;2023-07-13T01:43:20;2.38;;;0.20;;
44536;SDS011;30245;51.966;6.292;2023-07-13T01:45:46;1.73;;;0.20;;
44536;SDS011;30245;51.966;6.292;2023-07-13T01:48:12;0.50;;;0.10;;
44536;SDS011;30245;51.966;6.292;2023-07-13T01:50:38;2.67;;;0.40;;
44536;SDS011;30245;51.966;6.292;2023-07-13T01:53:04;1.85;;;0.30;;
44536;SDS011;30245;51.966;6.292;2023-07-13T01:55:31;5.88;;;0.68;;
44536;SDS011;30245;51.966;6.292;2023-07-13T01:57:58;0.98;;;0.22;;
44536;SDS011;30245;51.966;6.292;2023-07-13T02:00:24;0.60;;;0.20;;
44536;SDS011;30245;51.966;6.292;2023-07-13T02:02:50;1.58;;;0.30;;
44536;SDS011;30245;51.966;6.292;2023-07-13T02:05:16;1.42;;;0.30;;
44536;SDS011;30245;51.966;6.292;2023-07-13T02:07:42;2.47;;;0.43;;
44536;SDS011;30245;51.966;6.292;2023-07-13T02:10:08;5.68;;;1.75;;
44536;SDS011;30245;51.966;6.292;2023-07-13T02:12:35;5.78;;;0.40;;
44536;SDS011;30245;51.966;6.292;2023-07-13T02:15:02;3.85;;;0.38;;
44536;SDS011;30245;51.966;6.292;2023-07-13T02:17:28;3.42;;;0.35;;
44536;SDS011;30245;51.966;6.292;2023-07-13T02:19:54;2.65;;;0.77;;
44536;SDS011;30245;51.966;6.292;2023-07-13T02:22:20;1.77;;;0.30;;
44536;SDS011;30245;51.966;6.292;2023-07-13T02:24:46;3.58;;;0.30;;
44536;SDS011;30245;51.966;6.292;2023-07-13T02:27:13;2.75;;;0.40;;
44536;SDS011;30245;51.966;6.292;2023-07-13T02:29:38;1.90;;;0.40;;
44536;SDS011;30245;51.966;6.292;2023-07-13T02:32:04;3.40;;;0.60;;
44536;SDS011;30245;51.966;6.292;2023-07-13T02:34:30;3.15;;;0.40;;
44536;SDS011;30245;51.966;6.292;2023-07-13T02:36:56;1.65;;;0.30;;
44536;SDS011;30245;51.966;6.292;2023-07-13T02:39:22;2.47;;;0.30;;
44536;SDS011;30245;51.966;6.292;2023-07-13T02:41:47;1.80;;;0.68;;
44536;SDS011;30245;51.966;6.292;2023-07-13T02:44:13;1.25;;;0.30;;
44536;SDS011;30245;51.966;6.292;2023-07-13T02:46:40;5.32;;;0.80;;
44536;SDS011;30245;51.966;6.292;2023-07-13T02:49:06;2.80;;;0.32;;
44536;SDS011;30245;51.966;6.292;2023-07-13T02:51:32;2.05;;;0.20;;
44536;SDS011;30245;51.966;6.292;2023-07-13T02:54:01;1.60;;;0.40;;
44536;SDS011;30245;51.966;6.292;2023-07-13T02:56:28;2.38;;;0.40;;
44536;SDS011;30245;51.966;6.292;2023-07-13T02:58:55;2.53;;;0.38;;
44536;SDS011;30245;51.966;6.292;2023-07-13T03:01:21;4.18;;;0.40;;
44536;SDS011;30245;51.966;6.292;2023-07-13T03:03:48;2.33;;;0.50;;
44536;SDS011;30245;51.966;6.292;2023-07-13T03:06:14;2.75;;;0.40;;
44536;SDS011;30245;51.966;6.292;2023-07-13T03:08:40;1.58;;;0.30;;
44536;SDS011;30245;51.966;6.292;2023-07-13T03:11:07;1.85;;;0.40;;
44536;SDS011;30245;51.966;6.292;2023-07-13T03:13:35;1.02;;;0.25;;
44536;SDS011;30245;51.966;6.292;2023-07-13T03:16:01;3.17;;;0.38;;
44536;SDS011;30245;51.966;6.292;2023-07-13T03:18:27;2.60;;;0.80;;
44536;SDS011;30245;51.966;6.292;2023-07-13T03:20:53;4.00;;;0.30;;
44536;SDS011;30245;51.966;6.292;2023-07-13T03:23:20;6.82;;;1.05;;
44536;SDS011;30245;51.966;6.292;2023-07-13T03:25:46;1.58;;;0.30;;
44536;SDS011;30245;51.966;6.292;2023-07-13T03:28:12;3.28;;;0.30;;
44536;SDS011;30245;51.966;6.292;2023-07-13T03:30:38;6.28;;;0.45;;
44536;SDS011;30245;51.966;6.292;2023-07-13T03:33:04;1.92;;;0.30;;
44536;SDS011;30245;51.966;6.292;2023-07-13T03:35:30;1.90;;;0.40;;
44536;SDS011;30245;51.966;6.292;2023-07-13T03:37:57;1.70;;;0.30;;
44536;SDS011;30245;51.966;6.292;2023-07-13T03:40:24;1.17;;;0.32;;
44536;SDS011;30245;51.966;6.292;2023-07-13T03:42:51;7.85;;;0.77;;
44536;SDS011;30245;51.966;6.292;2023-07-13T03:45:17;1.90;;;0.50;;
44536;SDS011;30245;51.966;6.292;2023-07-13T03:47:43;2.97;;;0.50;;
44536;SDS011;30245;51.966;6.292;2023-07-13T03:50:08;1.95;;;0.32;;
44536;SDS011;30245;51.966;6.292;2023-07-13T03:52:34;2.67;;;0.40;;
44536;SDS011;30245;51.966;6.292;2023-07-13T03:55:00;2.33;;;0.93;;
44536;SDS011;30245;51.966;6.292;2023-07-13T03:57:25;2.38;;;0.40;;
44536;SDS011;30245;51.966;6.292;2023-07-13T03:59:51;2.85;;;0.30;;
44536;SDS011;30245;51.966;6.292;2023-07-13T04:02:17;4.07;;;0.45;;
44536;SDS011;30245;51.966;6.292;2023-07-13T04:04:43;2.25;;;0.40;;
44536;SDS011;30245;51.966;6.292;2023-07-13T04:07:08;3.22;;;0.40;;
44536;SDS011;30245;51.966;6.292;2023-07-13T04:09:35;2.90;;;0.55;;
44536;SDS011;30245;51.966;6.292;2023-07-13T04:12:00;3.55;;;0.50;;
44536;SDS011;30245;51.966;6.292;2023-07-13T04:14:26;1.90;;;0.40;;
44536;SDS011;30245;51.966;6.292;2023-07-13T04:16:52;2.63;;;0.50;;
44536;SDS011;30245;51.966;6.292;2023-07-13T04:19:19;0.95;;;0.38;;
44536;SDS011;30245;51.966;6.292;2023-07-13T04:21:45;2.53;;;0.40;;
44536;SDS011;30245;51.966;6.292;2023-07-13T04:24:11;1.85;;;0.63;;
44536;SDS011;30245;51.966;6.292;2023-07-13T04:26:37;3.42;;;0.50;;
44536;SDS011;30245;51.966;6.292;2023-07-13T04:29:04;10.48;;;0.95;;
44536;SDS011;30245;51.966;6.292;2023-07-13T04:31:31;3.45;;;0.40;;
44536;SDS011;30245;51.966;6.292;2023-07-13T04:33:57;2.63;;;0.50;;
44536;SDS011;30245;51.966;6.292;2023-07-13T04:36:23;4.80;;;0.90;;
44536;SDS011;30245;51.966;6.292;2023-07-13T04:38:52;4.30;;;1.30;;
44536;SDS011;30245;51.966;6.292;2023-07-13T04:41:19;2.50;;;0.80;;
44536;SDS011;30245;51.966;6.292;2023-07-13T04:43:45;8.77;;;1.25;;
44536;SDS011;30245;51.966;6.292;2023-07-13T04:46:11;4.28;;;1.05;;
44536;SDS011;30245;51.966;6.292;2023-07-13T04:48:40;2.67;;;0.65;;
44536;SDS011;30245;51.966;6.292;2023-07-13T04:51:06;4.13;;;0.95;;
44536;SDS011;30245;51.966;6.292;2023-07-13T04:53:32;2.72;;;0.47;;
44536;SDS011;30245;51.966;6.292;2023-07-13T04:55:59;3.92;;;0.95;;
44536;SDS011;30245;51.966;6.292;2023-07-13T04:58:25;4.00;;;0.70;;
44536;SDS011;30245;51.966;6.292;2023-07-13T05:00:52;8.73;;;2.20;;
44536;SDS011;30245;51.966;6.292;2023-07-13T05:03:18;1.92;;;0.50;;
44536;SDS011;30245;51.966;6.292;2023-07-13T05:05:54;6.82;;;0.90;;
44536;SDS011;30245;51.966;6.292;2023-07-13T05:08:24;2.35;;;0.75;;
44536;SDS011;30245;51.966;6.292;2023-07-13T05:10:50;1.55;;;0.30;;
44536;SDS011;30245;51.966;6.292;2023-07-13T05:13:16;4.03;;;0.68;;
44536;SDS011;30245;51.966;6.292;2023-07-13T05:15:42;3.50;;;0.88;;
44536;SDS011;30245;51.966;6.292;2023-07-13T05:18:07;4.90;;;0.80;;
44536;SDS011;30245;51.966;6.292;2023-07-13T05:20:33;2.65;;;0.50;;
44536;SDS011;30245;51.966;6.292;2023-07-13T05:22:59;4.10;;;0.60;;
44536;SDS011;30245;51.966;6.292;2023-07-13T05:25:24;4.57;;;0.63;;
44536;SDS011;30245;51.966;6.292;2023-07-13T05:27:50;2.40;;;0.40;;
44536;SDS011;30245;51.966;6.292;2023-07-13T05:30:16;5.95;;;1.17;;
44536;SDS011;30245;51.966;6.292;2023-07-13T05:32:41;3.25;;;0.47;;
44536;SDS011;30245;51.966;6.292;2023-07-13T05:35:07;2.25;;;1.15;;
44536;SDS011;30245;51.966;6.292;2023-07-13T05:37:33;2.60;;;0.82;;
44536;SDS011;30245;51.966;6.292;2023-07-13T05:39:59;3.05;;;0.77;;
44536;SDS011;30245;51.966;6.292;2023-07-13T05:42:25;2.20;;;0.80;;
44536;SDS011;30245;51.966;6.292;2023-07-13T05:44:50;3.45;;;1.20;;
44536;SDS011;30245;51.966;6.292;2023-07-13T05:47:16;4.57;;;1.08;;
44536;SDS011;30245;51.966;6.292;2023-07-13T05:49:41;5.32;;;1.27;;
44536;SDS011;30245;51.966;6.292;2023-07-13T05:52:07;6.43;;;1.05;;
44536;SDS011;30245;51.966;6.292;2023-07-13T05:54:33;4.18;;;2.03;;
44536;SDS011;30245;51.966;6.292;2023-07-13T05:56:59;9.57;;;1.90;;
44536;SDS011;30245;51.966;6.292;2023-07-13T05:59:24;4.55;;;1.05;;
44536;SDS011;30245;51.966;6.292;2023-07-13T06:01:50;9.88;;;1.77;;
44536;SDS011;30245;51.966;6.292;2023-07-13T06:04:17;8.65;;;1.45;;
44536;SDS011;30245;51.966;6.292;2023-07-13T06:06:44;9.18;;;1.80;;
44536;SDS011;30245;51.966;6.292;2023-07-13T06:09:09;5.88;;;1.85;;
44536;SDS011;30245;51.966;6.292;2023-07-13T06:11:35;6.22;;;1.35;;
44536;SDS011;30245;51.966;6.292;2023-07-13T06:14:01;7.40;;;1.50;;
44536;SDS011;30245;51.966;6.292;2023-07-13T06:16:27;8.52;;;2.20;;
44536;SDS011;30245;51.966;6.292;2023-07-13T06:18:52;4.07;;;1.45;;
44536;SDS011;30245;51.966;6.292;2023-07-13T06:21:19;4.50;;;1.45;;
44536;SDS011;30245;51.966;6.292;2023-07-13T06:23:49;8.18;;;2.45;;
44536;SDS011;30245;51.966;6.292;2023-07-13T06:26:16;6.53;;;2.67;;
44536;SDS011;30245;51.966;6.292;2023-07-13T06:28:43;12.02;;;3.17;;
44536;SDS011;30245;51.966;6.292;2023-07-13T06:31:10;10.18;;;3.17;;
44536;SDS011;30245;51.966;6.292;2023-07-13T06:33:37;9.27;;;3.92;;
44536;SDS011;30245;51.966;6.292;2023-07-13T06:36:03;8.68;;;3.20;;
44536;SDS011;30245;51.966;6.292;2023-07-13T06:38:31;4.93;;;3.53;;
44536;SDS011;30245;51.966;6.292;2023-07-13T06:40:57;5.95;;;4.07;;
44536;SDS011;30245;51.966;6.292;2023-07-13T06:43:23;10.82;;;3.83;;
44536;SDS011;30245;51.966;6.292;2023-07-13T06:45:50;14.95;;;5.30;;
44536;SDS011;30245;51.966;6.292;2023-07-13T06:48:17;13.02;;;3.45;;
44536;SDS011;30245;51.966;6.292;2023-07-13T06:50:44;7.23;;;4.53;;
44536;SDS011;30245;51.966;6.292;2023-07-13T06:53:10;11.88;;;4.07;;
44536;SDS011;30245;51.966;6.292;2023-07-13T06:55:37;10.55;;;3.70;;
44536;SDS011;30245;51.966;6.292;2023-07-13T06:58:03;9.25;;;4.53;;
44536;SDS011;30245;51.966;6.292;2023-07-13T07:00:29;15.45;;;4.63;;
44536;SDS011;30245;51.966;6.292;2023-07-13T07:02:54;7.53;;;4.00;;
44536;SDS011;30245;51.966;6.292;2023-07-13T07:05:20;11.48;;;4.22;;
44536;SDS011;30245;51.966;6.292;2023-07-13T07:07:47;13.23;;;4.00;;
44536;SDS011;30245;51.966;6.292;2023-07-13T07:10:16;8.57;;;5.28;;
44536;SDS011;30245;51.966;6.292;2023-07-13T07:12:43;9.15;;;5.20;;
44536;SDS011;30245;51.966;6.292;2023-07-13T07:15:08;9.48;;;4.35;;
44536;SDS011;30245;51.966;6.292;2023-07-13T07:17:34;7.70;;;4.47;;
44536;SDS011;30245;51.966;6.292;2023-07-13T07:20:00;10.15;;;4.63;;
44536;SDS011;30245;51.966;6.292;2023-07-13T07:22:26;7.88;;;4.30;;
44536;SDS011;30245;51.966;6.292;2023-07-13T07:24:52;8.23;;;4.38;;
44536;SDS011;30245;51.966;6.292;2023-07-13T07:27:19;15.98;;;6.63;;
44536;SDS011;30245;51.966;6.292;2023-07-13T07:29:45;9.00;;;5.20;;
44536;SDS011;30245;51.966;6.292;2023-07-13T07:32:11;9.65;;;5.72;;
44536;SDS011;30245;51.966;6.292;2023-07-13T07:34:36;9.68;;;4.90;;
44536;SDS011;30245;51.966;6.292;2023-07-13T07:37:02;11.75;;;5.85;;
44536;SDS011;30245;51.966;6.292;2023-07-13T07:39:29;11.98;;;5.47;;
44536;SDS011;30245;51.966;6.292;2023-07-13T07:41:55;9.93;;;4.97;;
44536;SDS011;30245;51.966;6.292;2023-07-13T07:44:20;13.75;;;5.75;;
44536;SDS011;30245;51.966;6.292;2023-07-13T07:46:46;9.90;;;5.15;;
44536;SDS011;30245;51.966;6.292;2023-07-13T07:49:12;13.00;;;4.22;;
44536;SDS011;30245;51.966;6.292;2023-07-13T07:51:38;8.90;;;4.15;;
44536;SDS011;30245;51.966;6.292;2023-07-13T07:54:04;9.07;;;4.50;;
44536;SDS011;30245;51.966;6.292;2023-07-13T07:56:30;7.93;;;3.60;;
44536;SDS011;30245;51.966;6.292;2023-07-13T07:58:56;12.40;;;4.75;;
44536;SDS011;30245;51.966;6.292;2023-07-13T08:01:22;8.75;;;4.60;;
44536;SDS011;30245;51.966;6.292;2023-07-13T08:03:48;10.80;;;5.35;;
44536;SDS011;30245;51.966;6.292;2023-07-13T08:06:13;10.27;;;4.10;;
44536;SDS011;30245;51.966;6.292;2023-07-13T08:08:39;13.43;;;4.00;;
44536;SDS011;30245;51.966;6.292;2023-07-13T08:11:06;15.40;;;4.30;;
44536;SDS011;30245;51.966;6.292;2023-07-13T08:13:33;6.35;;;3.33;;
44536;SDS011;30245;51.966;6.292;2023-07-13T08:15:59;11.90;;;5.43;;
44536;SDS011;30245;51.966;6.292;2023-07-13T08:18:25;16.05;;;4.32;;
44536;SDS011;30245;51.966;6.292;2023-07-13T08:20:53;10.93;;;5.35;;
44536;SDS011;30245;51.966;6.292;2023-07-13T08:25:51;14.52;;;6.45;;
44536;SDS011;30245;51.966;6.292;2023-07-13T08:28:19;10.38;;;4.80;;
44536;SDS011;30245;51.966;6.292;2023-07-13T08:30:45;7.47;;;4.20;;
44536;SDS011;30245;51.966;6.292;2023-07-13T08:33:17;8.80;;;4.40;;
44536;SDS011;30245;51.966;6.292;2023-07-13T08:35:47;13.05;;;5.35;;
44536;SDS011;30245;51.966;6.292;2023-07-13T08:38:13;10.98;;;4.53;;
44536;SDS011;30245;51.966;6.292;2023-07-13T08:40:39;10.23;;;3.83;;
44536;SDS011;30245;51.966;6.292;2023-07-13T08:43:07;8.95;;;4.60;;
44536;SDS011;30245;51.966;6.292;2023-07-13T08:48:14;10.02;;;4.43;;
44536;SDS011;30245;51.966;6.292;2023-07-13T08:53:36;11.23;;;3.35;;
44536;SDS011;30245;51.966;6.292;2023-07-13T08:56:08;10.88;;;4.43;;
44536;SDS011;30245;51.966;6.292;2023-07-13T08:58:43;8.40;;;3.90;;
44536;SDS011;30245;51.966;6.292;2023-07-13T09:03:41;14.43;;;6.65;;
44536;SDS011;30245;51.966;6.292;2023-07-13T09:06:16;8.93;;;4.43;;
44536;SDS011;30245;51.966;6.292;2023-07-13T09:11:50;10.65;;;3.80;;
44536;SDS011;30245;51.966;6.292;2023-07-13T09:17:03;9.57;;;3.85;;
44536;SDS011;30245;51.966;6.292;2023-07-13T09:19:35;8.10;;;3.28;;
44536;SDS011;30245;51.966;6.292;2023-07-13T09:22:02;9.25;;;2.95;;
44536;SDS011;30245;51.966;6.292;2023-07-13T09:27:52;9.55;;;3.85;;
44536;SDS011;30245;51.966;6.292;2023-07-13T09:32:43;11.57;;;3.85;;
44536;SDS011;30245;51.966;6.292;2023-07-13T09:35:16;6.55;;;2.58;;
44536;SDS011;30245;51.966;6.292;2023-07-13T09:37:45;8.05;;;2.88;;
44536;SDS011;30245;51.966;6.292;2023-07-13T09:40:23;8.95;;;3.03;;
44536;SDS011;30245;51.966;6.292;2023-07-13T09:42:55;7.70;;;2.90;;
44536;SDS011;30245;51.966;6.292;2023-07-13T09:45:31;5.72;;;2.30;;
44536;SDS011;30245;51.966;6.292;2023-07-13T09:47:59;4.90;;;2.75;;
44536;SDS011;30245;51.966;6.292;2023-07-13T09:50:30;8.43;;;2.65;;
44536;SDS011;30245;51.966;6.292;2023-07-13T09:52:55;4.22;;;2.00;;
44536;SDS011;30245;51.966;6.292;2023-07-13T09:58:16;7.70;;;1.63;;
44536;SDS011;30245;51.966;6.292;2023-07-13T10:00:53;4.63;;;2.17;;
44536;SDS011;30245;51.966;6.292;2023-07-13T10:03:33;5.13;;;1.92;;
44536;SDS011;30245;51.966;6.292;2023-07-13T10:06:12;5.35;;;1.95;;
44536;SDS011;30245;51.966;6.292;2023-07-13T10:08:43;2.20;;;1.05;;
44536;SDS011;30245;51.966;6.292;2023-07-13T10:13:39;4.63;;;1.17;;
44536;SDS011;30245;51.966;6.292;2023-07-13T10:16:10;3.35;;;1.67;;
44536;SDS011;30245;51.966;6.292;2023-07-13T10:18:41;4.60;;;2.60;;
44536;SDS011;30245;51.966;6.292;2023-07-13T10:21:20;5.03;;;2.17;;
44536;SDS011;30245;51.966;6.292;2023-07-13T10:24:00;2.85;;;1.80;;
44536;SDS011;30245;51.966;6.292;2023-07-13T10:26:37;5.88;;;4.43;;
44536;SDS011;30245;51.966;6.292;2023-07-13T10:29:09;6.28;;;3.95;;
44536;SDS011;30245;51.966;6.292;2023-07-13T10:31:39;12.70;;;4.32;;
44536;SDS011;30245;51.966;6.292;2023-07-13T10:34:09;7.93;;;3.20;;
44536;SDS011;30245;51.966;6.292;2023-07-13T10:36:41;5.72;;;2.20;;
44536;SDS011;30245;51.966;6.292;2023-07-13T10:39:13;4.97;;;1.50;;
44536;SDS011;30245;51.966;6.292;2023-07-13T10:41:53;4.65;;;2.00;;
44536;SDS011;30245;51.966;6.292;2023-07-13T10:44:29;2.55;;;1.45;;
44536;SDS011;30245;51.966;6.292;2023-07-13T10:47:06;5.00;;;1.80;;
44536;SDS011;30245;51.966;6.292;2023-07-13T10:49:38;4.40;;;2.03;;
44536;SDS011;30245;51.966;6.292;2023-07-13T10:52:06;7.30;;;1.70;;
44536;SDS011;30245;51.966;6.292;2023-07-13T10:54:51;6.72;;;2.25;;
44536;SDS011;30245;51.966;6.292;2023-07-13T10:57:20;3.30;;;1.73;;
44536;SDS011;30245;51.966;6.292;2023-07-13T11:02:43;4.13;;;2.33;;
44536;SDS011;30245;51.966;6.292;2023-07-13T11:07:54;3.63;;;1.15;;
44536;SDS011;30245;51.966;6.292;2023-07-13T11:10:46;3.63;;;1.08;;
44536;SDS011;30245;51.966;6.292;2023-07-13T11:14:25;5.50;;;1.23;;
44536;SDS011;30245;51.966;6.292;2023-07-13T11:18:47;3.72;;;1.38;;
44536;SDS011;30245;51.966;6.292;2023-07-13T11:23:44;3.33;;;1.08;;
44536;SDS011;30245;51.966;6.292;2023-07-13T11:29:07;4.93;;;1.85;;
44536;SDS011;30245;51.966;6.292;2023-07-13T11:31:55;4.30;;;2.20;;
44536;SDS011;30245;51.966;6.292;2023-07-13T11:36:51;5.35;;;2.03;;
44536;SDS011;30245;51.966;6.292;2023-07-13T11:39:31;2.58;;;1.75;;
44536;SDS011;30245;51.966;6.292;2023-07-13T11:42:15;6.05;;;2.83;;
44536;SDS011;30245;51.966;6.292;2023-07-13T11:44:45;4.45;;;2.13;;
44536;SDS011;30245;51.966;6.292;2023-07-13T11:47:19;3.92;;;2.20;;
44536;SDS011;30245;51.966;6.292;2023-07-13T11:49:50;6.35;;;1.92;;
44536;SDS011;30245;51.966;6.292;2023-07-13T11:52:22;5.55;;;2.03;;
44536;SDS011;30245;51.966;6.292;2023-07-13T11:54:55;3.97;;;1.73;;
44536;SDS011;30245;51.966;6.292;2023-07-13T11:59:52;6.68;;;3.10;;
44536;SDS011;30245;51.966;6.292;2023-07-13T12:02:33;4.55;;;1.42;;
44536;SDS011;30245;51.966;6.292;2023-07-13T12:05:10;3.13;;;1.80;;
44536;SDS011;30245;51.966;6.292;2023-07-13T12:07:38;6.45;;;2.00;;
44536;SDS011;30245;51.966;6.292;2023-07-13T12:13:08;3.45;;;1.70;;
44536;SDS011;30245;51.966;6.292;2023-07-13T12:15:40;2.83;;;0.80;;
44536;SDS011;30245;51.966;6.292;2023-07-13T12:18:16;2.15;;;1.13;;
44536;SDS011;30245;51.966;6.292;2023-07-13T12:20:45;2.50;;;0.85;;
44536;SDS011;30245;51.966;6.292;2023-07-13T12:25:55;2.65;;;1.13;;
44536;SDS011;30245;51.966;6.292;2023-07-13T12:28:30;3.53;;;0.75;;
44536;SDS011;30245;51.966;6.292;2023-07-13T12:30:59;2.72;;;1.25;;
44536;SDS011;30245;51.966;6.292;2023-07-13T12:33:28;1.52;;;0.50;;
44536;SDS011;30245;51.966;6.292;2023-07-13T12:35:55;1.45;;;0.40;;
44536;SDS011;30245;51.966;6.292;2023-07-13T12:38:24;1.83;;;0.60;;
44536;SDS011;30245;51.966;6.292;2023-07-13T12:40:50;1.60;;;0.50;;
44536;SDS011;30245;51.966;6.292;2023-07-13T12:43:17;1.20;;;0.32;;
44536;SDS011;30245;51.966;6.292;2023-07-13T12:46:00;1.67;;;0.40;;
44536;SDS011;30245;51.966;6.292;2023-07-13T12:48:28;5.25;;;0.65;;
44536;SDS011;30245;51.966;6.292;2023-07-13T12:50:54;2.20;;;0.70;;
44536;SDS011;30245;51.966;6.292;2023-07-13T12:53:22;3.22;;;0.57;;
44536;SDS011;30245;51.966;6.292;2023-07-13T12:55:53;1.67;;;0.50;;
44536;SDS011;30245;51.966;6.292;2023-07-13T13:00:53;3.45;;;0.60;;
44536;SDS011;30245;51.966;6.292;2023-07-13T13:05:47;2.63;;;0.40;;
44536;SDS011;30245;51.966;6.292;2023-07-13T13:08:13;1.92;;;0.35;;
44536;SDS011;30245;51.966;6.292;2023-07-13T13:10:39;1.40;;;0.30;;
44536;SDS011;30245;51.966;6.292;2023-07-13T13:13:05;0.70;;;0.30;;
44536;SDS011;30245;51.966;6.292;2023-07-13T13:15:31;1.85;;;0.70;;
44536;SDS011;30245;51.966;6.292;2023-07-13T13:17:57;1.92;;;0.38;;
44536;SDS011;30245;51.966;6.292;2023-07-13T13:20:23;1.20;;;0.70;;
44536;SDS011;30245;51.966;6.292;2023-07-13T13:22:50;3.53;;;0.40;;
44536;SDS011;30245;51.966;6.292;2023-07-13T13:25:17;0.77;;;0.30;;
44536;SDS011;30245;51.966;6.292;2023-07-13T13:27:43;0.90;;;0.40;;
44536;SDS011;30245;51.966;6.292;2023-07-13T13:30:13;0.90;;;0.20;;
44536;SDS011;30245;51.966;6.292;2023-07-13T13:32:41;2.00;;;0.30;;
44536;SDS011;30245;51.966;6.292;2023-07-13T13:35:14;1.00;;;0.20;;
44536;SDS011;30245;51.966;6.292;2023-07-13T13:37:44;0.90;;;0.20;;
44536;SDS011;30245;51.966;6.292;2023-07-13T13:40:17;0.68;;;0.20;;
44536;SDS011;30245;51.966;6.292;2023-07-13T13:42:48;0.95;;;0.30;;
44536;SDS011;30245;51.966;6.292;2023-07-13T13:45:14;1.13;;;0.38;;
44536;SDS011;30245;51.966;6.292;2023-07-13T13:47:42;1.15;;;0.40;;
44536;SDS011;30245;51.966;6.292;2023-07-13T13:50:13;0.98;;;0.30;;
44536;SDS011;30245;51.966;6.292;2023-07-13T13:52:41;1.42;;;0.45;;
44536;SDS011;30245;51.966;6.292;2023-07-13T13:57:44;1.35;;;0.30;;
44536;SDS011;30245;51.966;6.292;2023-07-13T14:00:11;1.05;;;0.30;;
44536;SDS011;30245;51.966;6.292;2023-07-13T14:02:39;1.35;;;0.30;;
44536;SDS011;30245;51.966;6.292;2023-07-13T14:05:09;2.78;;;0.43;;
44536;SDS011;30245;51.966;6.292;2023-07-13T14:07:37;1.00;;;0.20;;
44536;SDS011;30245;51.966;6.292;2023-07-13T14:10:08;2.47;;;0.50;;
44536;SDS011;30245;51.966;6.292;2023-07-13T14:12:43;1.30;;;0.43;;
44536;SDS011;30245;51.966;6.292;2023-07-13T14:15:18;0.70;;;0.30;;
44536;SDS011;30245;51.966;6.292;2023-07-13T14:17:52;0.95;;;0.28;;
44536;SDS011;30245;51.966;6.292;2023-07-13T14:20:19;0.65;;;0.30;;
44536;SDS011;30245;51.966;6.292;2023-07-13T14:22:47;1.45;;;0.30;;
44536;SDS011;30245;51.966;6.292;2023-07-13T14:25:15;1.38;;;0.30;;
44536;SDS011;30245;51.966;6.292;2023-07-13T14:27:42;1.58;;;0.30;;
44536;SDS011;30245;51.966;6.292;2023-07-13T14:30:16;4.00;;;0.55;;
44536;SDS011;30245;51.966;6.292;2023-07-13T14:32:44;1.15;;;0.47;;
44536;SDS011;30245;51.966;6.292;2023-07-13T14:35:12;1.85;;;1.00;;
44536;SDS011;30245;51.966;6.292;2023-07-13T14:37:39;2.03;;;0.40;;
44536;SDS011;30245;51.966;6.292;2023-07-13T14:43:01;1.17;;;0.38;;
44536;SDS011;30245;51.966;6.292;2023-07-13T14:45:26;2.05;;;0.32;;
44536;SDS011;30245;51.966;6.292;2023-07-13T14:47:53;1.65;;;0.52;;
44536;SDS011;30245;51.966;6.292;2023-07-13T14:50:20;2.55;;;0.40;;
44536;SDS011;30245;51.966;6.292;2023-07-13T14:52:51;1.50;;;0.30;;
44536;SDS011;30245;51.966;6.292;2023-07-13T14:55:18;5.18;;;1.15;;
44536;SDS011;30245;51.966;6.292;2023-07-13T14:57:44;3.08;;;0.55;;
44536;SDS011;30245;51.966;6.292;2023-07-13T15:00:20;1.40;;;0.30;;
44536;SDS011;30245;51.966;6.292;2023-07-13T15:02:50;2.67;;;0.30;;
44536;SDS011;30245;51.966;6.292;2023-07-13T15:05:25;2.42;;;0.70;;
44536;SDS011;30245;51.966;6.292;2023-07-13T15:07:56;1.83;;;0.50;;
44536;SDS011;30245;51.966;6.292;2023-07-13T15:10:29;1.92;;;0.50;;
44536;SDS011;30245;51.966;6.292;2023-07-13T15:13:00;1.75;;;0.35;;
44536;SDS011;30245;51.966;6.292;2023-07-13T15:15:37;2.17;;;0.40;;
44536;SDS011;30245;51.966;6.292;2023-07-13T15:18:09;1.55;;;0.60;;
44536;SDS011;30245;51.966;6.292;2023-07-13T15:20:36;1.95;;;0.50;;
44536;SDS011;30245;51.966;6.292;2023-07-13T15:23:03;2.22;;;0.70;;
44536;SDS011;30245;51.966;6.292;2023-07-13T15:25:30;1.70;;;0.65;;
44536;SDS011;30245;51.966;6.292;2023-07-13T15:27:58;1.58;;;0.38;;
44536;SDS011;30245;51.966;6.292;2023-07-13T15:30:27;3.10;;;0.68;;
44536;SDS011;30245;51.966;6.292;2023-07-13T15:32:55;1.65;;;0.60;;
44536;SDS011;30245;51.966;6.292;2023-07-13T15:35:27;0.88;;;0.32;;
44536;SDS011;30245;51.966;6.292;2023-07-13T15:37:53;3.22;;;0.80;;
44536;SDS011;30245;51.966;6.292;2023-07-13T15:40:19;1.17;;;0.50;;
44536;SDS011;30245;51.966;6.292;2023-07-13T15:42:49;1.48;;;0.50;;
44536;SDS011;30245;51.966;6.292;2023-07-13T15:47:49;1.10;;;0.40;;
44536;SDS011;30245;51.966;6.292;2023-07-13T15:50:17;2.17;;;0.55;;
44536;SDS011;30245;51.966;6.292;2023-07-13T15:52:45;2.67;;;0.50;;
44536;SDS011;30245;51.966;6.292;2023-07-13T15:55:23;2.50;;;0.50;;
44536;SDS011;30245;51.966;6.292;2023-07-13T15:57:50;1.15;;;0.40;;